Time;durP1;ratioP1;P1;durP2;ratioP2;P2;SDS_P1;SDS_P2;PMS_P1;PMS_P2;Temp;Humidity;BMP_temperature;BMP_pressure;BME280_temperature;BME280_humidity;BME280_pressure;Samples;Min_cycle;Max_cycle;Signal;HPM_P1;HPM_P2
2022/07/10 00:00:32;;;;;;;1.27;0.63;;;13.40;99.90;;;;;;5029563;28;20057;-49
2022/07/10 00:02:59;;;;;;;6.75;1.50;;;13.40;99.90;;;;;;5029517;28;20029;-51
2022/07/10 00:05:26;;;;;;;3.95;1.02;;;13.40;99.90;;;;;;5029604;28;20025;-53
2022/07/10 00:07:52;;;;;;;3.95;1.33;;;13.40;99.90;;;;;;5029632;28;20395;-52
2022/07/10 00:10:18;;;;;;;1.33;0.60;;;13.40;99.90;;;;;;5043715;22;20045;-47
2022/07/10 00:12:45;;;;;;;3.05;0.80;;;13.40;99.90;;;;;;5037716;28;20049;-46
2022/07/10 00:15:11;;;;;;;1.73;0.88;;;13.40;99.90;;;;;;5048155;28;20074;-47
2022/07/10 00:17:38;;;;;;;4.70;0.90;;;13.40;99.90;;;;;;5049966;28;20029;-49
2022/07/10 00:20:05;;;;;;;2.08;0.50;;;13.40;99.90;;;;;;5050425;28;20414;-48
2022/07/10 00:22:30;;;;;;;1.95;0.50;;;13.40;99.90;;;;;;5048768;28;20029;-52
2022/07/10 00:24:57;;;;;;;5.45;1.25;;;13.30;99.90;;;;;;5049100;28;20036;-47
2022/07/10 00:27:23;;;;;;;4.97;1.00;;;13.30;99.90;;;;;;5049003;28;20040;-47
2022/07/10 00:29:48;;;;;;;3.22;0.80;;;13.30;99.90;;;;;;5048360;28;20027;-47
2022/07/10 00:32:14;;;;;;;3.45;1.10;;;13.20;99.90;;;;;;5044121;28;20021;-49
2022/07/10 00:34:40;;;;;;;7.65;1.23;;;13.30;99.90;;;;;;5048822;28;20032;-49
2022/07/10 00:37:05;;;;;;;6.78;1.35;;;13.20;99.90;;;;;;5048360;28;20013;-49
2022/07/10 00:39:31;;;;;;;5.47;1.58;;;13.20;99.90;;;;;;5049067;28;20021;-51
2022/07/10 00:42:11;;;;;;;3.65;0.85;;;13.20;99.90;;;;;;5048569;28;20025;-48
2022/07/10 00:44:37;;;;;;;3.53;0.70;;;13.20;99.90;;;;;;5048615;28;20040;-51
2022/07/10 00:47:04;;;;;;;3.63;1.05;;;13.20;99.90;;;;;;5048916;28;20028;-47
2022/07/10 00:49:30;;;;;;;1.88;1.05;;;13.20;99.90;;;;;;5048564;28;20021;-47
2022/07/10 00:51:59;;;;;;;5.43;1.25;;;13.20;99.90;;;;;;5048538;28;20029;-46
2022/07/10 00:54:25;;;;;;;5.72;1.00;;;13.20;99.90;;;;;;5049308;28;20053;-46
2022/07/10 00:56:51;;;;;;;5.80;1.02;;;13.20;99.90;;;;;;5048459;28;20079;-46
2022/07/10 00:59:18;;;;;;;5.47;0.90;;;13.20;99.90;;;;;;5046057;28;20032;-48
2022/07/10 01:01:44;;;;;;;5.47;1.23;;;13.20;99.90;;;;;;5045961;28;20423;-47
2022/07/10 01:04:10;;;;;;;3.47;0.88;;;13.20;99.90;;;;;;5047029;28;20068;-51
2022/07/10 01:06:36;;;;;;;2.63;0.65;;;13.20;99.90;;;;;;5048843;28;20487;-48
2022/07/10 01:09:03;;;;;;;1.83;0.90;;;13.20;99.90;;;;;;5047376;28;20028;-47
2022/07/10 01:11:29;;;;;;;1.52;0.63;;;13.20;99.90;;;;;;5048568;28;20033;-50
2022/07/10 01:13:55;;;;;;;3.25;1.15;;;13.20;99.90;;;;;;5051160;28;20074;-49
2022/07/10 01:16:22;;;;;;;6.85;1.77;;;13.20;99.90;;;;;;5045653;28;20028;-48
2022/07/10 01:18:47;;;;;;;5.10;0.80;;;13.20;99.90;;;;;;5035127;28;20051;-50
2022/07/10 01:21:28;;;;;;;1.98;0.73;;;13.20;99.90;;;;;;5051927;28;20025;-52
2022/07/10 01:23:54;;;;;;;6.65;1.23;;;13.10;99.90;;;;;;5052767;28;20036;-49
2022/07/10 01:26:23;;;;;;;4.93;0.90;;;13.10;99.90;;;;;;5052076;28;20063;-48
2022/07/10 01:28:53;;;;;;;3.65;1.38;;;13.10;99.90;;;;;;5052932;28;20108;-48
2022/07/10 01:31:20;;;;;;;5.13;1.38;;;13.10;99.90;;;;;;5052101;28;20028;-49
2022/07/10 01:33:47;;;;;;;3.95;1.00;;;13.10;99.90;;;;;;5052631;28;20033;-52
2022/07/10 01:36:13;;;;;;;5.38;1.25;;;13.10;99.90;;;;;;5051911;28;20016;-48
2022/07/10 01:38:40;;;;;;;2.95;1.00;;;13.00;99.90;;;;;;5052196;28;20492;-49
2022/07/10 01:41:06;;;;;;;3.83;1.30;;;13.10;99.90;;;;;;5052235;28;20056;-47
2022/07/10 01:43:32;;;;;;;4.38;1.95;;;13.10;99.90;;;;;;5051852;28;20055;-47
2022/07/10 01:45:57;;;;;;;4.90;1.30;;;13.10;99.90;;;;;;5051846;28;20025;-48
2022/07/10 01:48:23;;;;;;;5.03;1.10;;;13.10;99.90;;;;;;5052410;28;20036;-48
2022/07/10 01:50:48;;;;;;;3.53;1.05;;;13.10;99.90;;;;;;5051111;28;20035;-47
2022/07/10 01:53:14;;;;;;;2.85;0.82;;;13.10;99.90;;;;;;5052071;28;20028;-47
2022/07/10 01:55:39;;;;;;;4.53;1.17;;;13.20;99.90;;;;;;5051705;28;20044;-51
2022/07/10 01:58:05;;;;;;;5.45;1.27;;;13.20;99.90;;;;;;5051976;28;20033;-47
2022/07/10 02:00:30;;;;;;;5.68;1.42;;;13.20;99.90;;;;;;5051890;28;20613;-46
2022/07/10 02:05:40;;;;;;;6.95;1.35;;;13.20;99.90;;;;;;5051698;28;20055;-47
2022/07/10 02:08:06;;;;;;;7.55;1.48;;;13.20;99.90;;;;;;5051879;28;20475;-50
2022/07/10 02:10:32;;;;;;;7.90;1.27;;;13.20;99.90;;;;;;5051584;28;20453;-49
2022/07/10 02:12:58;;;;;;;5.40;1.48;;;13.20;99.90;;;;;;5051627;28;20602;-51
2022/07/10 02:15:23;;;;;;;7.72;1.50;;;13.20;99.90;;;;;;5052249;28;20083;-52
2022/07/10 02:17:49;;;;;;;7.50;1.80;;;13.20;99.90;;;;;;5051214;28;20024;-51
2022/07/10 02:20:15;;;;;;;3.08;1.30;;;13.20;99.90;;;;;;5051297;28;20032;-51
2022/07/10 02:22:42;;;;;;;3.95;1.23;;;13.20;99.90;;;;;;5051091;28;20029;-51
2022/07/10 02:25:08;;;;;;;3.78;1.23;;;13.20;99.90;;;;;;5050271;28;20017;-50
2022/07/10 02:27:33;;;;;;;6.85;1.52;;;13.20;99.90;;;;;;5051090;28;20033;-52
2022/07/10 02:29:59;;;;;;;6.05;1.90;;;13.20;99.90;;;;;;5051229;28;20491;-48
2022/07/10 02:32:24;;;;;;;4.55;1.25;;;13.20;99.90;;;;;;5050489;28;20033;-52
2022/07/10 02:34:50;;;;;;;3.42;1.58;;;13.20;99.90;;;;;;5051167;28;20040;-50
2022/07/10 02:37:15;;;;;;;8.23;2.30;;;13.20;99.90;;;;;;5051313;28;20025;-48
2022/07/10 02:39:41;;;;;;;3.53;1.48;;;13.20;99.90;;;;;;5049353;28;20116;-47
2022/07/10 02:42:07;;;;;;;4.18;1.58;;;13.20;99.90;;;;;;5051102;28;20585;-47
2022/07/10 02:44:32;;;;;;;4.93;1.27;;;13.20;99.90;;;;;;5050904;28;20108;-47
2022/07/10 02:46:58;;;;;;;3.95;1.60;;;13.20;99.90;;;;;;5051028;28;20048;-47
2022/07/10 02:49:24;;;;;;;7.55;1.52;;;13.20;99.90;;;;;;5050653;28;20032;-49
2022/07/10 02:51:50;;;;;;;4.68;1.52;;;13.20;99.90;;;;;;5050374;28;20029;-51
2022/07/10 02:54:16;;;;;;;6.20;1.77;;;13.20;99.90;;;;;;5050837;28;20036;-47
2022/07/10 02:56:42;;;;;;;4.88;1.75;;;13.20;99.90;;;;;;5050555;28;20136;-49
2022/07/10 02:59:07;;;;;;;5.03;1.60;;;13.20;99.90;;;;;;5050751;28;20032;-52
2022/07/10 03:01:33;;;;;;;3.55;1.55;;;13.20;99.90;;;;;;5050465;28;20071;-47
2022/07/10 03:03:58;;;;;;;4.82;1.60;;;13.20;99.90;;;;;;5050883;28;20021;-47
2022/07/10 03:06:24;;;;;;;9.75;1.95;;;13.20;99.90;;;;;;5050578;28;20033;-48
2022/07/10 03:08:50;;;;;;;7.32;1.60;;;13.20;99.90;;;;;;5050368;28;20140;-52
2022/07/10 03:11:15;;;;;;;4.03;1.15;;;13.20;99.90;;;;;;5050452;28;20063;-47
2022/07/10 03:13:41;;;;;;;5.95;1.50;;;13.20;99.90;;;;;;5050559;28;20036;-48
2022/07/10 03:16:06;;;;;;;6.45;2.08;;;13.20;99.90;;;;;;5050663;28;20108;-48
2022/07/10 03:18:32;;;;;;;7.57;2.08;;;13.20;99.90;;;;;;5050462;28;20388;-49
2022/07/10 03:20:58;;;;;;;5.63;2.15;;;13.20;99.90;;;;;;5050589;28;20384;-46
2022/07/10 03:23:23;;;;;;;3.78;1.90;;;13.20;99.90;;;;;;5049974;28;20064;-47
2022/07/10 03:25:49;;;;;;;8.82;1.80;;;13.20;99.90;;;;;;5050494;28;20036;-54
2022/07/10 03:28:14;;;;;;;7.90;2.28;;;13.20;99.90;;;;;;5032192;28;20040;-52
2022/07/10 03:30:40;;;;;;;6.60;2.25;;;13.30;99.90;;;;;;5049990;28;20025;-53
2022/07/10 03:33:06;;;;;;;11.45;3.08;;;13.20;99.90;;;;;;5050020;28;20108;-52
2022/07/10 03:35:31;;;;;;;6.35;1.30;;;13.20;99.90;;;;;;5049596;28;20025;-53
2022/07/10 03:37:57;;;;;;;9.52;1.98;;;13.20;99.90;;;;;;5032077;28;20039;-51
2022/07/10 03:40:23;;;;;;;9.95;2.70;;;13.20;99.90;;;;;;5049848;28;20040;-53
2022/07/10 03:42:49;;;;;;;8.25;2.40;;;13.20;99.90;;;;;;5031676;28;20430;-52
2022/07/10 03:45:15;;;;;;;6.18;1.58;;;13.30;99.90;;;;;;5049990;28;20067;-51
2022/07/10 03:47:40;;;;;;;6.95;1.85;;;13.20;99.90;;;;;;5048154;28;20037;-48
2022/07/10 03:50:06;;;;;;;6.43;1.83;;;13.20;99.90;;;;;;5049753;28;20033;-51
2022/07/10 03:52:32;;;;;;;6.10;1.98;;;13.30;99.90;;;;;;5049695;28;20032;-47
2022/07/10 03:54:57;;;;;;;8.35;2.55;;;13.20;99.90;;;;;;5050049;28;20114;-49
2022/07/10 04:00:09;;;;;;;8.63;1.98;;;13.20;99.90;;;;;;5050190;28;20117;-49
2022/07/10 04:02:34;;;;;;;9.43;2.55;;;13.20;99.90;;;;;;5049125;28;20039;-50
2022/07/10 04:05:00;;;;;;;9.55;1.98;;;13.20;99.90;;;;;;5049632;28;20100;-48
2022/07/10 04:07:25;;;;;;;8.32;2.47;;;13.20;99.90;;;;;;5031375;28;20059;-50
2022/07/10 04:09:51;;;;;;;9.23;2.35;;;13.30;99.90;;;;;;5049127;28;20037;-47
2022/07/10 04:12:16;;;;;;;3.97;1.70;;;13.30;99.90;;;;;;5049621;28;20025;-48
2022/07/10 04:14:42;;;;;;;14.40;3.08;;;13.30;99.90;;;;;;5049434;28;20052;-47
2022/07/10 04:17:08;;;;;;;5.22;1.83;;;13.30;99.90;;;;;;5048931;28;20446;-49
2022/07/10 04:19:34;;;;;;;8.57;2.15;;;13.30;99.90;;;;;;5049063;28;20117;-52
2022/07/10 04:21:59;;;;;;;6.65;1.98;;;13.40;99.90;;;;;;5049008;28;20420;-49
2022/07/10 04:24:25;;;;;;;11.05;2.55;;;13.40;99.90;;;;;;5031404;28;20021;-46
2022/07/10 04:26:51;;;;;;;7.00;2.20;;;13.50;99.90;;;;;;5048611;28;20036;-47
2022/07/10 04:29:16;;;;;;;5.97;2.05;;;13.50;99.90;;;;;;5049245;28;20102;-49
2022/07/10 04:31:42;;;;;;;8.55;2.30;;;13.50;99.90;;;;;;5048765;28;20079;-50
2022/07/10 04:34:07;;;;;;;10.25;2.03;;;13.50;99.90;;;;;;5049151;28;20037;-49
2022/07/10 04:36:33;;;;;;;12.20;3.78;;;13.50;99.90;;;;;;5048507;28;20033;-47
2022/07/10 04:38:59;;;;;;;11.55;2.90;;;13.50;99.90;;;;;;5048797;28;20060;-49
2022/07/10 04:41:24;;;;;;;10.63;3.05;;;13.50;99.90;;;;;;5048624;28;20032;-50
2022/07/10 04:43:50;;;;;;;5.22;1.95;;;13.50;99.90;;;;;;5048829;28;20544;-47
2022/07/10 04:46:15;;;;;;;7.10;1.98;;;13.60;99.90;;;;;;5048538;28;20025;-48
2022/07/10 04:48:41;;;;;;;8.95;2.42;;;13.60;99.90;;;;;;5048224;28;20031;-51
2022/07/10 04:51:07;;;;;;;10.68;2.60;;;13.60;99.90;;;;;;5048474;28;20036;-49
2022/07/10 04:53:32;;;;;;;12.85;3.85;;;13.60;99.90;;;;;;5048507;28;20385;-48
2022/07/10 04:55:58;;;;;;;9.02;2.45;;;13.60;99.90;;;;;;5048691;28;20500;-47
2022/07/10 04:58:24;;;;;;;15.30;2.70;;;13.60;99.90;;;;;;5048981;28;20025;-48
2022/07/10 05:00:49;;;;;;;8.93;2.58;;;13.60;99.90;;;;;;5048386;28;20033;-47
2022/07/10 05:03:15;;;;;;;8.32;2.08;;;13.60;99.90;;;;;;5048798;28;20779;-47
2022/07/10 05:05:41;;;;;;;10.85;1.88;;;13.70;99.90;;;;;;5048882;28;20021;-47
2022/07/10 05:08:07;;;;;;;10.07;2.55;;;13.70;99.90;;;;;;5048911;28;20043;-46
2022/07/10 05:10:32;;;;;;;9.32;2.58;;;13.70;99.90;;;;;;5048674;28;20086;-49
2022/07/10 05:12:58;;;;;;;8.60;2.85;;;13.70;99.90;;;;;;5048800;28;20470;-49
2022/07/10 05:15:23;;;;;;;8.52;2.13;;;13.80;99.90;;;;;;5048781;28;20025;-49
2022/07/10 05:17:49;;;;;;;9.63;2.90;;;13.80;99.90;;;;;;5048382;28;20086;-48
2022/07/10 05:20:15;;;;;;;9.02;2.83;;;13.80;99.90;;;;;;5030414;28;20056;-47
2022/07/10 05:22:40;;;;;;;8.15;2.30;;;13.80;99.90;;;;;;5048548;28;20021;-48
2022/07/10 05:25:07;;;;;;;7.82;2.30;;;13.80;99.90;;;;;;5048250;28;20365;-50
2022/07/10 05:27:32;;;;;;;10.55;3.15;;;13.90;99.90;;;;;;5048525;28;20124;-47
2022/07/10 05:29:58;;;;;;;10.68;2.75;;;13.90;99.90;;;;;;5047679;28;20025;-52
2022/07/10 05:32:25;;;;;;;8.45;3.05;;;13.90;99.90;;;;;;5048235;28;20028;-47
2022/07/10 05:34:51;;;;;;;9.65;3.05;;;13.90;99.90;;;;;;5031166;28;20013;-51
2022/07/10 05:37:17;;;;;;;9.20;3.38;;;14.00;99.90;;;;;;5048344;28;20573;-52
2022/07/10 05:39:43;;;;;;;11.80;3.15;;;14.00;99.90;;;;;;5048241;28;20017;-53
2022/07/10 05:42:09;;;;;;;7.07;2.08;;;14.10;99.90;;;;;;5047934;28;20029;-52
2022/07/10 05:44:34;;;;;;;6.18;2.00;;;14.10;99.90;;;;;;5048446;28;20505;-53
2022/07/10 05:47:00;;;;;;;11.05;2.22;;;14.20;99.90;;;;;;5048520;28;20104;-52
2022/07/10 05:49:25;;;;;;;9.73;2.40;;;14.20;99.90;;;;;;5048154;28;20475;-52
2022/07/10 05:51:51;;;;;;;12.95;2.78;;;14.20;99.90;;;;;;5048058;28;20029;-53
2022/07/10 05:54:17;;;;;;;10.60;2.50;;;14.20;99.90;;;;;;5048174;28;20025;-52
2022/07/10 05:56:42;;;;;;;7.93;2.05;;;14.20;99.90;;;;;;5030198;28;20045;-47
2022/07/10 05:59:08;;;;;;;14.18;2.55;;;14.30;99.90;;;;;;5031332;28;20032;-47
2022/07/10 06:01:33;;;;;;;11.70;2.42;;;14.30;99.90;;;;;;5051722;28;20035;-48
2022/07/10 06:03:59;;;;;;;11.13;2.30;;;14.40;99.90;;;;;;5051805;28;20017;-51
2022/07/10 06:06:24;;;;;;;9.50;2.03;;;14.50;99.90;;;;;;5033959;28;20545;-49
2022/07/10 06:08:50;;;;;;;10.82;2.42;;;14.60;99.90;;;;;;5051355;28;20475;-46
2022/07/10 06:11:16;;;;;;;10.05;1.77;;;14.50;99.90;;;;;;5099361;22;20049;-51
2022/07/10 06:13:41;;;;;;;8.15;2.33;;;14.50;99.90;;;;;;5030954;28;20021;-54
2022/07/10 06:16:07;;;;;;;11.23;2.78;;;14.50;99.90;;;;;;5031365;28;20049;-53
2022/07/10 06:18:33;;;;;;;13.88;2.83;;;14.60;99.90;;;;;;5031775;28;20022;-52
2022/07/10 06:20:58;;;;;;;12.73;1.88;;;14.60;99.90;;;;;;5031492;28;20033;-51
2022/07/10 06:23:24;;;;;;;10.13;2.13;;;14.60;99.90;;;;;;5031257;28;20033;-49
2022/07/10 06:25:49;;;;;;;8.88;2.88;;;14.50;99.90;;;;;;5031497;28;20025;-55
2022/07/10 06:28:16;;;;;;;11.93;2.55;;;14.50;99.90;;;;;;5031180;28;20032;-55
2022/07/10 06:30:42;;;;;;;7.70;2.47;;;14.60;99.90;;;;;;5030984;28;20033;-53
2022/07/10 06:33:08;;;;;;;7.82;2.03;;;14.70;99.90;;;;;;5040970;28;20040;-54
2022/07/10 06:35:33;;;;;;;9.57;2.13;;;14.70;99.90;;;;;;5031004;28;20175;-51
2022/07/10 06:37:59;;;;;;;11.20;1.75;;;14.80;99.90;;;;;;5031155;28;20121;-53
2022/07/10 06:40:26;;;;;;;11.40;2.20;;;14.80;99.90;;;;;;5030849;28;20026;-51
2022/07/10 06:42:51;;;;;;;9.38;1.98;;;14.90;99.90;;;;;;5030320;28;20116;-52
2022/07/10 06:45:17;;;;;;;8.80;1.98;;;14.90;99.90;;;;;;5031003;28;20056;-51
2022/07/10 06:47:58;;;;;;;13.38;2.63;;;15.00;99.90;;;;;;5030692;28;20054;-52
2022/07/10 06:50:26;;;;;;;10.68;2.55;;;15.00;99.90;;;;;;5024489;28;20352;-50
2022/07/10 06:52:52;;;;;;;10.52;2.95;;;15.10;99.90;;;;;;5012685;28;20396;-48
2022/07/10 06:55:21;;;;;;;9.43;2.63;;;15.30;99.90;;;;;;5030772;28;20072;-52
2022/07/10 06:57:47;;;;;;;8.35;2.17;;;15.60;99.90;;;;;;5030657;28;20021;-52
2022/07/10 07:00:13;;;;;;;9.98;2.00;;;15.80;99.90;;;;;;5029838;28;20025;-53
2022/07/10 07:02:39;;;;;;;7.43;1.67;;;16.00;99.90;;;;;;5030612;28;20022;-52
2022/07/10 07:05:06;;;;;;;9.85;2.13;;;16.30;99.90;;;;;;5030852;28;20087;-53
2022/07/10 07:07:32;;;;;;;5.13;1.90;;;16.60;99.90;;;;;;5030662;28;20488;-49
2022/07/10 07:09:57;;;;;;;13.75;2.13;;;16.60;99.90;;;;;;5011683;28;20036;-52
2022/07/10 07:12:23;;;;;;;10.38;2.28;;;16.50;99.90;;;;;;5030208;28;20496;-54
2022/07/10 07:14:49;;;;;;;9.02;2.00;;;16.30;99.90;;;;;;5029986;28;20017;-53
2022/07/10 07:17:21;;;;;;;8.57;2.10;;;16.30;99.90;;;;;;5009208;28;20024;-51
2022/07/10 07:25:15;;;;;;;4.97;1.35;;;15.90;99.90;;;;;;5026668;28;20091;-49
2022/07/10 07:27:41;;;;;;;7.82;2.45;;;15.80;99.90;;;;;;5030035;28;20483;-49
2022/07/10 07:30:11;;;;;;;8.77;2.05;;;15.70;99.90;;;;;;5029746;28;20081;-51
2022/07/10 07:32:38;;;;;;;6.70;1.35;;;15.70;99.90;;;;;;5029931;28;20029;-50
2022/07/10 07:35:05;;;;;;;6.55;1.15;;;15.90;99.90;;;;;;5029830;28;20033;-56
2022/07/10 07:37:48;;;;;;;7.65;2.10;;;16.20;99.90;;;;;;5030190;28;20010;-51
2022/07/10 07:40:16;;;;;;;4.32;0.90;;;16.20;99.90;;;;;;5012290;28;20125;-52
2022/07/10 07:42:42;;;;;;;7.57;1.42;;;16.20;99.90;;;;;;5012525;28;20373;-56
2022/07/10 07:45:09;;;;;;;5.57;1.10;;;16.50;99.90;;;;;;5011872;28;20036;-55
2022/07/10 07:47:52;;;;;;;4.72;1.25;;;16.80;99.90;;;;;;5029491;28;20022;-53
2022/07/10 07:50:22;;;;;;;6.88;1.40;;;17.10;99.90;;;;;;5022659;28;20037;-51
2022/07/10 07:52:49;;;;;;;5.47;0.85;;;17.20;99.90;;;;;;5029791;28;20104;-51
2022/07/10 07:55:16;;;;;;;11.25;1.48;;;17.20;99.90;;;;;;5030287;28;20033;-56
2022/07/10 07:57:43;;;;;;;6.03;1.38;;;17.40;99.90;;;;;;5026117;28;20049;-53
2022/07/10 08:00:10;;;;;;;4.93;0.95;;;17.60;99.90;;;;;;5029435;28;21424;-56
2022/07/10 08:02:36;;;;;;;5.70;1.00;;;17.90;99.30;;;;;;5027798;28;20408;-52
2022/07/10 08:05:04;;;;;;;5.38;1.30;;;18.00;97.90;;;;;;5028889;28;20511;-53
2022/07/10 08:07:41;;;;;;;4.72;1.50;;;18.20;98.40;;;;;;5029126;28;20022;-52
2022/07/10 08:10:13;;;;;;;4.60;1.10;;;18.20;97.50;;;;;;5030831;28;20032;-50
2022/07/10 08:12:40;;;;;;;5.88;1.38;;;18.30;99.00;;;;;;5029206;28;20026;-49
2022/07/10 08:15:08;;;;;;;7.90;1.90;;;18.30;99.20;;;;;;5029433;28;20127;-49
2022/07/10 08:17:34;;;;;;;4.32;0.98;;;18.50;98.30;;;;;;5029874;28;20049;-50
2022/07/10 08:19:59;;;;;;;5.22;1.30;;;18.50;98.20;;;;;;5029270;28;20487;-52
2022/07/10 08:22:25;;;;;;;2.28;0.90;;;18.40;99.00;;;;;;5010491;28;20029;-52
2022/07/10 08:24:51;;;;;;;5.68;1.10;;;18.40;99.10;;;;;;5011561;28;20026;-50
2022/07/10 08:27:17;;;;;;;6.80;1.90;;;18.20;98.90;;;;;;5028747;28;20082;-50
2022/07/10 08:29:42;;;;;;;7.10;1.58;;;18.20;98.50;;;;;;5028995;28;20022;-52
2022/07/10 08:32:09;;;;;;;4.55;1.70;;;18.20;98.40;;;;;;5028410;28;20113;-50
2022/07/10 08:34:35;;;;;;;6.93;1.98;;;18.40;98.90;;;;;;5011668;28;20400;-55
2022/07/10 08:37:01;;;;;;;5.13;1.38;;;18.70;98.40;;;;;;5028075;28;20025;-52
2022/07/10 08:39:27;;;;;;;5.78;1.70;;;18.60;95.90;;;;;;5010631;28;20398;-52
2022/07/10 08:41:52;;;;;;;6.18;1.60;;;18.50;96.90;;;;;;5010303;28;20022;-56
2022/07/10 08:44:18;;;;;;;7.68;1.63;;;18.50;96.50;;;;;;5028819;28;20025;-51
2022/07/10 08:46:45;;;;;;;5.40;1.63;;;18.60;95.90;;;;;;5028927;28;20480;-53
2022/07/10 08:49:11;;;;;;;5.20;1.35;;;18.70;95.30;;;;;;5027137;28;20024;-54
2022/07/10 08:51:41;;;;;;;5.30;1.35;;;18.80;96.00;;;;;;5028447;28;20026;-52
2022/07/10 08:54:08;;;;;;;9.25;1.48;;;18.80;95.00;;;;;;5010675;28;20525;-50
2022/07/10 08:56:34;;;;;;;6.47;1.52;;;19.00;96.00;;;;;;5028756;28;20041;-54
2022/07/10 08:59:03;;;;;;;1.88;0.98;;;19.30;95.70;;;;;;5028345;28;20025;-50
2022/07/10 09:01:30;;;;;;;3.88;1.60;;;19.50;95.60;;;;;;5028522;28;20022;-52
2022/07/10 09:03:55;;;;;;;5.57;1.35;;;19.80;95.50;;;;;;5028764;28;20249;-56
2022/07/10 09:06:21;;;;;;;5.32;1.40;;;19.90;94.00;;;;;;5028732;28;20024;-51
2022/07/10 09:09:04;;;;;;;3.13;0.93;;;19.80;94.50;;;;;;5028413;28;20087;-53
2022/07/10 09:11:30;;;;;;;5.07;1.00;;;19.90;96.00;;;;;;5027395;28;20133;-50
2022/07/10 09:13:58;;;;;;;3.63;1.27;;;20.10;94.80;;;;;;5028222;28;20084;-55
2022/07/10 09:16:34;;;;;;;6.88;1.10;;;20.10;94.20;;;;;;5028092;28;20029;-52
2022/07/10 09:19:22;;;;;;;4.47;1.30;;;20.10;94.40;;;;;;5028703;28;20028;-52
2022/07/10 09:21:50;;;;;;;6.22;1.50;;;20.10;95.20;;;;;;5007997;28;20369;-53
2022/07/10 09:24:19;;;;;;;3.80;1.23;;;20.30;94.70;;;;;;5028782;28;20167;-54
2022/07/10 09:27:03;;;;;;;7.32;1.73;;;20.10;95.10;;;;;;5018635;28;20026;-51
2022/07/10 09:29:29;;;;;;;8.20;1.73;;;19.90;95.80;;;;;;5022922;28;20013;-53
2022/07/10 09:32:00;;;;;;;4.05;1.27;;;19.80;95.80;;;;;;5027521;28;20104;-51
2022/07/10 09:34:35;;;;;;;6.40;1.63;;;19.70;96.00;;;;;;5030287;28;20507;-54
2022/07/10 09:37:16;;;;;;;4.45;1.83;;;19.80;96.20;;;;;;5031746;28;20021;-53
2022/07/10 09:40:04;;;;;;;5.05;1.40;;;20.00;94.60;;;;;;5036007;28;20554;-53
2022/07/10 09:42:42;;;;;;;7.57;1.95;;;20.00;94.80;;;;;;5020900;28;20029;-57
2022/07/10 09:45:16;;;;;;;5.43;1.15;;;20.00;93.40;;;;;;5031527;28;20029;-50
2022/07/10 09:47:55;;;;;;;6.10;1.27;;;19.90;95.60;;;;;;5032299;28;20026;-51
2022/07/10 09:50:33;;;;;;;6.15;1.40;;;19.80;94.80;;;;;;5024928;28;20128;-55
2022/07/10 09:53:09;;;;;;;4.07;1.25;;;19.40;95.10;;;;;;5029499;28;20029;-56
2022/07/10 09:55:36;;;;;;;4.18;1.02;;;19.30;93.40;;;;;;5031392;28;20120;-49
2022/07/10 09:58:03;;;;;;;6.05;1.23;;;19.40;94.60;;;;;;5028390;28;20030;-51
2022/07/10 10:00:33;;;;;;;7.00;1.40;;;19.60;93.60;;;;;;5031354;28;20036;-54
2022/07/10 10:03:11;;;;;;;4.70;1.77;;;19.80;94.20;;;;;;5031297;28;20017;-52
2022/07/10 10:05:43;;;;;;;5.65;1.33;;;20.00;94.70;;;;;;5032284;28;20631;-55
2022/07/10 10:08:27;;;;;;;5.65;1.38;;;20.00;93.40;;;;;;5031879;28;20037;-57
2022/07/10 10:10:56;;;;;;;8.32;1.77;;;19.80;93.90;;;;;;5028601;28;20109;-60
2022/07/10 10:13:30;;;;;;;4.85;1.52;;;19.80;94.40;;;;;;5013071;28;20103;-57
2022/07/10 10:15:56;;;;;;;9.80;1.98;;;19.90;94.80;;;;;;5020784;28;20049;-56
2022/07/10 10:18:23;;;;;;;5.30;1.55;;;20.00;94.10;;;;;;5031335;28;20026;-54
2022/07/10 10:20:51;;;;;;;3.92;1.20;;;19.90;93.80;;;;;;5039445;28;20059;-55
2022/07/10 10:23:20;;;;;;;4.43;1.30;;;20.00;94.30;;;;;;5031175;28;20031;-53
2022/07/10 10:25:46;;;;;;;4.03;1.50;;;20.20;94.10;;;;;;5031209;28;20034;-50
2022/07/10 10:28:15;;;;;;;3.20;0.85;;;20.30;92.50;;;;;;5031410;28;20091;-52
2022/07/10 10:30:45;;;;;;;3.53;0.80;;;20.30;93.30;;;;;;5031274;28;20037;-55
2022/07/10 10:33:33;;;;;;;3.25;0.77;;;20.30;92.80;;;;;;5013325;28;20033;-56
2022/07/10 10:36:00;;;;;;;2.40;1.38;;;20.30;92.40;;;;;;5031413;28;20029;-56
2022/07/10 10:38:48;;;;;;;2.05;1.13;;;20.20;91.70;;;;;;5030801;28;20030;-59
2022/07/10 10:41:27;;;;;;;2.10;0.77;;;19.90;91.30;;;;;;5005264;28;20030;-56
2022/07/10 10:44:07;;;;;;;3.60;0.98;;;19.70;93.40;;;;;;5031111;28;20029;-54
2022/07/10 10:46:34;;;;;;;7.30;1.48;;;19.90;93.50;;;;;;5030249;28;20403;-53
2022/07/10 10:49:06;;;;;;;4.53;1.10;;;20.00;93.80;;;;;;5030880;28;20036;-58
2022/07/10 10:52:01;;;;;;;5.78;1.40;;;20.10;92.90;;;;;;5037638;28;20024;-56
2022/07/10 10:54:28;;;;;;;4.78;1.05;;;20.20;93.20;;;;;;5029737;28;20029;-57
2022/07/10 10:57:13;;;;;;;5.05;1.05;;;20.40;93.10;;;;;;5030941;28;20029;-55
2022/07/10 10:59:52;;;;;;;4.35;0.95;;;20.10;91.60;;;;;;5030738;28;20558;-59
2022/07/10 11:02:21;;;;;;;4.47;1.70;;;19.60;91.80;;;;;;5024238;28;20022;-54
2022/07/10 11:04:46;;;;;;;2.13;0.93;;;19.30;93.20;;;;;;5030473;28;20026;-54
2022/07/10 11:07:12;;;;;;;6.30;1.20;;;19.20;93.90;;;;;;5030732;28;20044;-57
2022/07/10 11:09:37;;;;;;;6.38;1.38;;;19.20;93.50;;;;;;5029346;28;20033;-57
2022/07/10 11:12:12;;;;;;;2.90;1.00;;;19.20;93.50;;;;;;5030534;28;20059;-54
2022/07/10 11:14:45;;;;;;;4.80;1.13;;;19.30;93.00;;;;;;5030480;28;20025;-53
2022/07/10 11:17:10;;;;;;;5.68;1.25;;;19.30;93.20;;;;;;5030400;28;20053;-56
2022/07/10 11:19:36;;;;;;;4.18;1.20;;;19.30;92.10;;;;;;5030613;28;20621;-55
2022/07/10 11:22:18;;;;;;;4.68;1.40;;;19.20;93.00;;;;;;5030143;28;20038;-53
2022/07/10 11:25:22;;;;;;;8.32;1.17;;;19.20;93.70;;;;;;5030576;28;20786;-52
2022/07/10 11:28:07;;;;;;;4.22;0.68;;;19.50;93.20;;;;;;5004491;28;20033;-53
2022/07/10 11:30:53;;;;;;;4.97;1.10;;;19.60;93.30;;;;;;5025001;28;20112;-55
2022/07/10 11:33:22;;;;;;;6.65;1.48;;;19.70;91.80;;;;;;5026805;28;20030;-56
2022/07/10 11:35:51;;;;;;;5.72;1.95;;;19.40;91.70;;;;;;5030207;28;20825;-61
2022/07/10 11:38:21;;;;;;;5.63;1.13;;;19.30;93.40;;;;;;5030056;28;20025;-53
2022/07/10 11:40:47;;;;;;;2.78;1.05;;;19.40;94.60;;;;;;5030279;28;20025;-52
2022/07/10 11:43:16;;;;;;;7.53;1.58;;;19.50;93.90;;;;;;5011634;28;20436;-57
2022/07/10 11:45:43;;;;;;;6.95;1.27;;;19.60;93.30;;;;;;5030170;28;20053;-55
2022/07/10 11:48:19;;;;;;;4.85;1.05;;;19.70;93.30;;;;;;5029936;28;20109;-56
2022/07/10 11:50:45;;;;;;;4.80;1.40;;;19.60;93.20;;;;;;5030304;28;20025;-55
2022/07/10 11:53:11;;;;;;;6.25;1.27;;;19.70;93.60;;;;;;5031550;28;20032;-52
2022/07/10 11:55:40;;;;;;;2.55;1.48;;;19.80;93.90;;;;;;5029940;28;20036;-49
2022/07/10 11:58:16;;;;;;;2.17;0.90;;;19.90;92.80;;;;;;5028403;28;20068;-55
2022/07/10 12:00:42;;;;;;;4.80;1.25;;;19.80;93.30;;;;;;5029405;28;20100;-54
2022/07/10 12:03:20;;;;;;;3.03;1.00;;;19.60;92.00;;;;;;5029473;28;20093;-51
2022/07/10 12:05:46;;;;;;;5.20;1.30;;;19.60;92.50;;;;;;5028973;28;20029;-51
2022/07/10 12:08:15;;;;;;;5.93;0.93;;;19.80;92.20;;;;;;5029504;28;20100;-52
2022/07/10 12:10:42;;;;;;;3.63;1.33;;;19.70;92.60;;;;;;5029333;28;20025;-55
2022/07/10 12:13:15;;;;;;;5.28;1.13;;;19.60;92.30;;;;;;5049857;22;20503;-51
2022/07/10 12:15:43;;;;;;;6.18;1.20;;;19.60;93.20;;;;;;5029804;28;20032;-57
2022/07/10 12:18:19;;;;;;;4.68;0.93;;;19.70;92.90;;;;;;5028569;28;20140;-56
2022/07/10 12:20:49;;;;;;;4.13;1.23;;;19.70;93.50;;;;;;5030180;28;20026;-49
2022/07/10 12:23:16;;;;;;;4.68;1.35;;;19.80;93.20;;;;;;5015023;28;20076;-54
2022/07/10 12:25:43;;;;;;;6.07;1.25;;;19.90;92.40;;;;;;5010094;28;20127;-50
2022/07/10 12:28:09;;;;;;;6.22;1.92;;;19.80;93.40;;;;;;5009695;28;20408;-57
2022/07/10 12:30:42;;;;;;;6.18;1.52;;;19.90;92.90;;;;;;5008409;28;20105;-54
2022/07/10 12:33:18;;;;;;;3.53;1.65;;;19.70;92.50;;;;;;5013230;28;20356;-51
2022/07/10 12:35:53;;;;;;;5.30;1.17;;;19.70;93.20;;;;;;5009419;28;20101;-49
2022/07/10 12:38:20;;;;;;;4.45;1.30;;;19.70;92.40;;;;;;5010803;28;20057;-51
2022/07/10 12:40:45;;;;;;;7.65;1.67;;;19.50;93.20;;;;;;5008656;28;20417;-51
2022/07/10 12:43:11;;;;;;;5.03;1.13;;;19.30;93.60;;;;;;5014097;28;20061;-53
2022/07/10 12:45:38;;;;;;;2.47;1.02;;;19.20;94.10;;;;;;5009614;28;20088;-49
2022/07/10 12:48:05;;;;;;;6.65;1.45;;;19.10;93.90;;;;;;5022695;28;20022;-55
2022/07/10 12:50:31;;;;;;;3.17;1.30;;;19.10;93.70;;;;;;5011577;28;20034;-49
2022/07/10 12:53:08;;;;;;;9.80;1.50;;;19.10;94.70;;;;;;5009683;28;20041;-55
2022/07/10 12:55:38;;;;;;;5.53;1.90;;;19.20;94.10;;;;;;5010069;28;20037;-53
2022/07/10 12:58:09;;;;;;;4.65;1.20;;;19.20;94.70;;;;;;5005018;28;20022;-51
2022/07/10 13:00:49;;;;;;;6.57;1.23;;;19.20;94.60;;;;;;5010662;28;20403;-48